This is the latest recevied weather packets stored in our database for station/object IR1CH-3. If no packets are shown the sender has not sent any weather packets the latest 10 day(s).
| Time | Temp. | Humidity | Pressure | Rain* | Wind** | Luminosity | Snow |
|---|---|---|---|---|---|---|---|
| 1777464621 | 20° C | 76% | 1015.3 hPa | - | - | - | - |
| 1777462821 | 20° C | 75% | 1015.4 hPa | - | - | - | - |
| 1777461020 | 21.11° C | 71% | 1015.2 hPa | - | - | - | - |
| 1777459220 | 21.11° C | 73% | 1015.3 hPa | - | - | - | - |
| 1777457420 | 21.11° C | 76% | 1015.3 hPa | - | - | - | - |
| 1777455620 | 20° C | 86% | 1015.5 hPa | - | - | - | - |
| 1777453819 | 20° C | 78% | 1015.6 hPa | - | - | - | - |
| 1777452019 | 18.89° C | 87% | 1015.7 hPa | - | - | - | - |
| 1777450218 | 16.67° C | 99% | 1015.9 hPa | - | - | - | - |
| 1777448418 | 15.56° C | 99% | 1015.8 hPa | - | - | - | - |
| 1777446618 | 16.11° C | 88% | 1015.6 hPa | - | - | - | - |
| 1777444818 | 16.11° C | 81% | 1015.5 hPa | - | - | - | - |
| 1777443017 | 16.11° C | 74% | 1015.1 hPa | - | - | - | - |
| 1777441217 | 16.67° C | 70% | 1015 hPa | - | - | - | - |
| 1777439417 | 17.22° C | 72% | 1014.9 hPa | - | - | - | - |
| 1777437616 | 14.44° C | 82% | 1014.9 hPa | - | - | - | - |
| 1777435816 | 14.44° C | 80% | 1014.9 hPa | - | - | - | - |
| 1777434015 | 14.44° C | 78% | 1014.9 hPa | - | - | - | - |
| 1777432215 | 14.44° C | 75% | 1015.1 hPa | - | - | - | - |
| 1777430415 | 14.44° C | 76% | 1015.1 hPa | - | - | - | - |
| 1777428615 | 14.44° C | 74% | 1015 hPa | - | - | - | - |
| 1777426814 | 15° C | 74% | 1015 hPa | - | - | - | - |
| 1777425014 | 15° C | 74% | 1015 hPa | - | - | - | - |
| 1777423214 | 15° C | 80% | 1015.1 hPa | - | - | - | - |
| 1777421413 | 15° C | 81% | 1015 hPa | - | - | - | - |
* Rain since midnight (hover to see other rain measurements)
** Current wind speed in m/s (hover to see current wind gust speed)